sensor_id;sensor_type;location;lat;lon;timestamp;temperature;humidity
322;DHT22;148;51.480;7.208;2024-02-28T17:07:48;10.00;64.70
322;DHT22;148;51.480;7.208;2024-02-28T17:10:13;10.20;64.70
322;DHT22;148;51.480;7.208;2024-02-28T17:12:39;10.60;64.60
322;DHT22;148;51.480;7.208;2024-02-28T17:15:07;11.00;64.00
322;DHT22;148;51.480;7.208;2024-02-28T17:17:32;11.30;63.80
322;DHT22;148;51.480;7.208;2024-02-28T17:19:58;11.60;63.10
322;DHT22;148;51.480;7.208;2024-02-28T17:22:24;11.70;63.00
322;DHT22;148;51.480;7.208;2024-02-28T17:24:49;11.80;63.10
322;DHT22;148;51.480;7.208;2024-02-28T17:27:16;11.90;62.90
322;DHT22;148;51.480;7.208;2024-02-28T17:29:42;12.10;62.60
322;DHT22;148;51.480;7.208;2024-02-28T17:32:07;12.20;62.60
322;DHT22;148;51.480;7.208;2024-02-28T17:34:33;12.20;62.40
322;DHT22;148;51.480;7.208;2024-02-28T17:36:59;12.40;61.80
322;DHT22;148;51.480;7.208;2024-02-28T17:39:27;12.40;62.80
322;DHT22;148;51.480;7.208;2024-02-28T17:41:53;12.50;61.50
322;DHT22;148;51.480;7.208;2024-02-28T17:44:18;12.50;60.90
322;DHT22;148;51.480;7.208;2024-02-28T17:46:44;12.50;61.00
322;DHT22;148;51.480;7.208;2024-02-28T17:49:09;12.40;61.80
322;DHT22;148;51.480;7.208;2024-02-28T17:51:35;12.30;62.70
322;DHT22;148;51.480;7.208;2024-02-28T17:54:04;12.30;63.10
322;DHT22;148;51.480;7.208;2024-02-28T17:56:31;12.20;63.50
322;DHT22;148;51.480;7.208;2024-02-28T17:58:59;12.20;64.10
322;DHT22;148;51.480;7.208;2024-02-28T18:01:27;12.20;64.30
322;DHT22;148;51.480;7.208;2024-02-28T18:03:53;12.20;64.50
322;DHT22;148;51.480;7.208;2024-02-28T18:06:19;12.10;64.70
322;DHT22;148;51.480;7.208;2024-02-28T18:08:45;12.00;64.90
322;DHT22;148;51.480;7.208;2024-02-28T18:11:10;11.90;65.10
322;DHT22;148;51.480;7.208;2024-02-28T18:13:37;11.80;65.30
322;DHT22;148;51.480;7.208;2024-02-28T18:16:06;11.90;65.30
322;DHT22;148;51.480;7.208;2024-02-28T18:18:32;12.00;65.10
322;DHT22;148;51.480;7.208;2024-02-28T18:20:59;11.90;65.40
322;DHT22;148;51.480;7.208;2024-02-28T18:23:25;11.80;65.40
322;DHT22;148;51.480;7.208;2024-02-28T18:25:50;11.80;65.50
322;DHT22;148;51.480;7.208;2024-02-28T18:28:18;11.90;65.40
322;DHT22;148;51.480;7.208;2024-02-28T18:30:44;12.00;65.40
322;DHT22;148;51.480;7.208;2024-02-28T18:33:11;12.10;65.30
322;DHT22;148;51.480;7.208;2024-02-28T18:35:37;12.10;65.30
322;DHT22;148;51.480;7.208;2024-02-28T18:38:03;12.00;65.20
322;DHT22;148;51.480;7.208;2024-02-28T18:40:29;12.00;65.30
322;DHT22;148;51.480;7.208;2024-02-28T18:42:55;11.90;65.40
322;DHT22;148;51.480;7.208;2024-02-28T18:45:21;11.90;65.40
322;DHT22;148;51.480;7.208;2024-02-28T18:47:48;11.80;65.40
322;DHT22;148;51.480;7.208;2024-02-28T18:50:13;11.60;65.70
322;DHT22;148;51.480;7.208;2024-02-28T18:52:42;11.70;65.70
322;DHT22;148;51.480;7.208;2024-02-28T18:55:08;11.80;65.50
322;DHT22;148;51.480;7.208;2024-02-28T18:57:33;11.80;65.50
322;DHT22;148;51.480;7.208;2024-02-28T18:59:59;11.70;65.60
322;DHT22;148;51.480;7.208;2024-02-28T19:02:25;11.70;65.50
322;DHT22;148;51.480;7.208;2024-02-28T19:04:51;11.60;65.80
322;DHT22;148;51.480;7.208;2024-02-28T19:07:21;11.70;65.70
322;DHT22;148;51.480;7.208;2024-02-28T19:09:46;11.70;65.60
322;DHT22;148;51.480;7.208;2024-02-28T19:12:12;11.70;65.60
322;DHT22;148;51.480;7.208;2024-02-28T19:14:37;11.60;65.70
322;DHT22;148;51.480;7.208;2024-02-28T19:17:03;11.70;65.70
322;DHT22;148;51.480;7.208;2024-02-28T19:19:29;11.60;65.80
322;DHT22;148;51.480;7.208;2024-02-28T19:21:56;11.40;66.00
322;DHT22;148;51.480;7.208;2024-02-28T19:24:22;11.50;65.90
322;DHT22;148;51.480;7.208;2024-02-28T19:26:47;11.60;65.90
322;DHT22;148;51.480;7.208;2024-02-28T19:29:13;11.60;65.80
322;DHT22;148;51.480;7.208;2024-02-28T19:31:39;11.60;65.70
322;DHT22;148;51.480;7.208;2024-02-28T19:34:05;11.50;66.00
322;DHT22;148;51.480;7.208;2024-02-28T19:36:31;11.50;66.00
322;DHT22;148;51.480;7.208;2024-02-28T19:38:56;11.40;66.00
322;DHT22;148;51.480;7.208;2024-02-28T19:41:26;11.40;66.10
322;DHT22;148;51.480;7.208;2024-02-28T19:43:55;11.40;66.20
322;DHT22;148;51.480;7.208;2024-02-28T19:46:20;11.40;66.30
322;DHT22;148;51.480;7.208;2024-02-28T19:48:48;11.40;66.10
322;DHT22;148;51.480;7.208;2024-02-28T19:51:14;11.50;66.20
322;DHT22;148;51.480;7.208;2024-02-28T19:53:42;11.40;66.30
322;DHT22;148;51.480;7.208;2024-02-28T19:56:08;11.40;66.10
322;DHT22;148;51.480;7.208;2024-02-28T19:58:34;11.40;66.20
322;DHT22;148;51.480;7.208;2024-02-28T20:01:00;11.30;66.30
322;DHT22;148;51.480;7.208;2024-02-28T20:03:25;11.30;66.20
322;DHT22;148;51.480;7.208;2024-02-28T20:05:51;11.40;66.30
322;DHT22;148;51.480;7.208;2024-02-28T20:08:19;11.50;66.10
322;DHT22;148;51.480;7.208;2024-02-28T20:10:45;11.50;66.10
322;DHT22;148;51.480;7.208;2024-02-28T20:13:10;11.50;66.10
322;DHT22;148;51.480;7.208;2024-02-28T20:15:47;11.50;66.00
322;DHT22;148;51.480;7.208;2024-02-28T20:18:13;11.40;66.30
322;DHT22;148;51.480;7.208;2024-02-28T20:20:39;11.40;66.30
322;DHT22;148;51.480;7.208;2024-02-28T20:23:05;11.30;66.30
322;DHT22;148;51.480;7.208;2024-02-28T20:25:31;11.30;66.30
322;DHT22;148;51.480;7.208;2024-02-28T20:27:57;11.10;66.30
322;DHT22;148;51.480;7.208;2024-02-28T20:30:22;11.10;66.40
322;DHT22;148;51.480;7.208;2024-02-28T20:32:51;11.10;66.40
322;DHT22;148;51.480;7.208;2024-02-28T20:35:17;11.10;66.30
322;DHT22;148;51.480;7.208;2024-02-28T20:37:42;11.10;66.30
322;DHT22;148;51.480;7.208;2024-02-28T20:40:08;11.10;66.40
322;DHT22;148;51.480;7.208;2024-02-28T20:42:40;11.10;66.30
322;DHT22;148;51.480;7.208;2024-02-28T20:45:07;11.10;66.40
322;DHT22;148;51.480;7.208;2024-02-28T20:47:34;11.00;66.30
322;DHT22;148;51.480;7.208;2024-02-28T20:50:00;11.00;66.40
322;DHT22;148;51.480;7.208;2024-02-28T20:52:30;11.00;66.40
322;DHT22;148;51.480;7.208;2024-02-28T20:54:57;10.90;66.30
322;DHT22;148;51.480;7.208;2024-02-28T20:57:23;10.90;66.40
322;DHT22;148;51.480;7.208;2024-02-28T20:59:49;10.80;66.40
322;DHT22;148;51.480;7.208;2024-02-28T21:02:15;10.80;66.40
322;DHT22;148;51.480;7.208;2024-02-28T21:04:40;10.80;66.40
322;DHT22;148;51.480;7.208;2024-02-28T21:07:06;10.80;66.40
322;DHT22;148;51.480;7.208;2024-02-28T21:09:32;10.80;66.40
322;DHT22;148;51.480;7.208;2024-02-28T21:12:04;10.70;66.40
322;DHT22;148;51.480;7.208;2024-02-28T21:14:31;10.60;66.60
322;DHT22;148;51.480;7.208;2024-02-28T21:16:56;10.50;66.60
322;DHT22;148;51.480;7.208;2024-02-28T21:19:22;10.50;66.60
322;DHT22;148;51.480;7.208;2024-02-28T21:21:49;10.50;66.60
322;DHT22;148;51.480;7.208;2024-02-28T21:24:15;10.50;66.50
322;DHT22;148;51.480;7.208;2024-02-28T21:26:41;10.50;66.50
322;DHT22;148;51.480;7.208;2024-02-28T21:29:08;10.50;66.40
322;DHT22;148;51.480;7.208;2024-02-28T21:31:34;10.40;66.50
322;DHT22;148;51.480;7.208;2024-02-28T21:34:05;10.20;66.50
322;DHT22;148;51.480;7.208;2024-02-28T21:36:30;10.20;66.50
322;DHT22;148;51.480;7.208;2024-02-28T21:38:56;10.30;66.30
322;DHT22;148;51.480;7.208;2024-02-28T21:41:24;10.10;66.40
322;DHT22;148;51.480;7.208;2024-02-28T21:43:49;10.00;66.50
322;DHT22;148;51.480;7.208;2024-02-28T21:46:15;9.90;66.40
322;DHT22;148;51.480;7.208;2024-02-28T21:48:41;10.00;66.30
322;DHT22;148;51.480;7.208;2024-02-28T21:51:07;10.00;66.30
322;DHT22;148;51.480;7.208;2024-02-28T21:53:33;10.10;66.30
322;DHT22;148;51.480;7.208;2024-02-28T21:56:02;10.10;66.20
322;DHT22;148;51.480;7.208;2024-02-28T21:58:27;10.10;66.30
322;DHT22;148;51.480;7.208;2024-02-28T22:00:53;10.10;66.40
322;DHT22;148;51.480;7.208;2024-02-28T22:03:20;10.10;66.30
322;DHT22;148;51.480;7.208;2024-02-28T22:05:46;10.20;66.30
322;DHT22;148;51.480;7.208;2024-02-28T22:08:12;10.10;66.30
322;DHT22;148;51.480;7.208;2024-02-28T22:10:38;10.10;66.40
322;DHT22;148;51.480;7.208;2024-02-28T22:13:04;9.90;66.30
322;DHT22;148;51.480;7.208;2024-02-28T22:15:30;9.90;66.50
322;DHT22;148;51.480;7.208;2024-02-28T22:17:55;9.90;66.50
322;DHT22;148;51.480;7.208;2024-02-28T22:20:23;9.90;66.50
322;DHT22;148;51.480;7.208;2024-02-28T22:22:49;9.90;66.50
322;DHT22;148;51.480;7.208;2024-02-28T22:25:14;9.90;66.40
322;DHT22;148;51.480;7.208;2024-02-28T22:27:40;9.90;66.40
322;DHT22;148;51.480;7.208;2024-02-28T22:30:06;9.90;66.50
322;DHT22;148;51.480;7.208;2024-02-28T22:32:32;10.00;66.50
322;DHT22;148;51.480;7.208;2024-02-28T22:34:57;10.00;66.50
322;DHT22;148;51.480;7.208;2024-02-28T22:37:23;10.10;66.40
322;DHT22;148;51.480;7.208;2024-02-28T22:39:48;10.10;66.50
322;DHT22;148;51.480;7.208;2024-02-28T22:42:14;10.10;66.60
322;DHT22;148;51.480;7.208;2024-02-28T22:44:40;10.10;66.40
322;DHT22;148;51.480;7.208;2024-02-28T22:47:05;10.20;66.50
322;DHT22;148;51.480;7.208;2024-02-28T22:49:31;10.20;66.40
322;DHT22;148;51.480;7.208;2024-02-28T22:51:57;10.10;66.50
322;DHT22;148;51.480;7.208;2024-02-28T22:54:22;10.10;66.50
322;DHT22;148;51.480;7.208;2024-02-28T22:56:49;10.00;66.70
322;DHT22;148;51.480;7.208;2024-02-28T23:02:51;9.90;66.70
322;DHT22;148;51.480;7.208;2024-02-28T23:05:17;9.90;66.80
322;DHT22;148;51.480;7.208;2024-02-28T23:07:42;9.80;66.70
322;DHT22;148;51.480;7.208;2024-02-28T23:10:08;9.80;66.70
322;DHT22;148;51.480;7.208;2024-02-28T23:12:34;9.80;66.70
322;DHT22;148;51.480;7.208;2024-02-28T23:14:59;9.80;66.70
322;DHT22;148;51.480;7.208;2024-02-28T23:17:25;9.90;66.70
322;DHT22;148;51.480;7.208;2024-02-28T23:19:51;9.90;66.60
322;DHT22;148;51.480;7.208;2024-02-28T23:22:32;9.90;66.60
322;DHT22;148;51.480;7.208;2024-02-28T23:24:57;10.00;66.60
322;DHT22;148;51.480;7.208;2024-02-28T23:27:23;10.10;66.50
322;DHT22;148;51.480;7.208;2024-02-28T23:29:50;10.10;66.50
322;DHT22;148;51.480;7.208;2024-02-28T23:32:16;10.10;66.60
322;DHT22;148;51.480;7.208;2024-02-28T23:34:41;10.20;66.60
322;DHT22;148;51.480;7.208;2024-02-28T23:37:07;10.10;66.50
322;DHT22;148;51.480;7.208;2024-02-28T23:39:35;10.00;66.70
322;DHT22;148;51.480;7.208;2024-02-28T23:42:02;10.00;66.70
322;DHT22;148;51.480;7.208;2024-02-28T23:44:28;10.00;66.70
